Blue Angel — LXBK — position and weather

sailwx.info

Track history (hours):
 
Tides and Currents Weather Stations Pressure Air Temp Water Temp Dewpoint Dewpoint Depression Visibility Wind Speed Wind Dir Waves Ship Positions

Blue Angel

Last reported at 2018-Aug-19 17:39 UTC. Time now 2018-Aug-21 03:57 UTC.
Position N 43°35' E 007°08'.

MMSI: 3620.

Date/timePositionNaut miles runAvg speedWind from/ knotsBaromVisibWave heightAir tempDewpointWater temp
2018-Aug-19 17:39N 43°35' E 007°08'0 0.1
2018-Aug-19 17:30N 43°35' E 007°08'713.3
2018-Aug-19 17:00N 43°38' E 007°16'713.2
2018-Aug-19 16:30N 43°43' E 007°22'0 0.0
2018-Aug-19 15:59N 43°43' E 007°22'0 0.0
2018-Aug-19 15:29N 43°43' E 007°22'0 0.0
2018-Aug-19 14:59N 43°43' E 007°22'0 0.0
2018-Aug-19 14:29N 43°43' E 007°22'0 0.0
2018-Aug-19 13:59N 43°43' E 007°22'0 0.0
2018-Aug-19 13:29N 43°43' E 007°22'0 0.0
2018-Aug-19 12:59N 43°43' E 007°22'0 0.0
2018-Aug-19 12:29N 43°43' E 007°22'0 0.0
2018-Aug-19 11:59N 43°43' E 007°22'0 0.0
2018-Aug-19 11:29N 43°43' E 007°22'0 0.0
2018-Aug-19 10:56N 43°43' E 007°22'0 0.0
2018-Aug-19 10:29N 43°43' E 007°22'1 3.2
2018-Aug-19 10:00N 43°43' E 007°24'1 0.1
2018-Aug-18 15:45N 43°44' E 007°25'1 2.8
2018-Aug-18 15:31N 43°43' E 007°25'2 4.6
2018-Aug-18 15:00N 43°43' E 007°22'0 0.0
2018-Aug-18 14:30N 43°43' E 007°22'0 0.0
2018-Aug-18 14:00N 43°43' E 007°22'0 0.0
2018-Aug-18 13:27N 43°43' E 007°22'0 0.0
2018-Aug-18 13:00N 43°43' E 007°22'0 0.0
2018-Aug-18 12:30N 43°43' E 007°22'0 0.0
2018-Aug-18 12:00N 43°43' E 007°22'0 0.0
2018-Aug-18 11:27N 43°43' E 007°22'0 0.0
2018-Aug-18 11:00N 43°43' E 007°22'0 0.0
2018-Aug-18 10:27N 43°43' E 007°22'0 0.0
2018-Aug-18 10:00N 43°43' E 007°22'0 0.0
2018-Aug-18 09:27N 43°43' E 007°22'1 3.0
2018-Aug-18 09:00N 43°43' E 007°24'2 1.1
2018-Aug-18 07:18N 43°44' E 007°25'0 0.0
2018-Aug-18 07:00N 43°44' E 007°25'0 0.0
2018-Aug-17 17:45N 43°44' E 007°25'0 0.6
2018-Aug-17 17:30N 43°44' E 007°26'4 8.1
2018-Aug-17 17:00N 43°42' E 007°21'0 0.7
2018-Aug-17 16:24N 43°41' E 007°21'0 0.0
2018-Aug-17 16:00N 43°41' E 007°21'0 0.0
2018-Aug-17 15:27N 43°41' E 007°21'0 0.0
2018-Aug-17 15:00N 43°41' E 007°21'0 0.0
2018-Aug-17 14:00N 43°41' E 007°21'0 0.0
2018-Aug-17 13:30N 43°41' E 007°21'0 0.0
2018-Aug-17 12:57N 43°41' E 007°21'0 0.0
2018-Aug-17 12:30N 43°41' E 007°21'0 0.0
2018-Aug-17 12:00N 43°41' E 007°21'0 0.0
2018-Aug-17 11:30N 43°41' E 007°21'0 0.0
2018-Aug-17 11:00N 43°41' E 007°21'0 0.0
2018-Aug-17 10:27N 43°41' E 007°21'0 0.0
2018-Aug-17 09:15N 43°41' E 007°21'3 6.3
2018-Aug-17 08:42N 43°43' E 007°25'1 0.1
2018-Aug-16 16:35N 43°44' E 007°25'0 0.6
2018-Aug-16 16:30N 43°44' E 007°25'0 0.2
2018-Aug-16 15:59N 43°44' E 007°25'0 0.1
2018-Aug-16 15:30N 43°44' E 007°25'3 6.6
2018-Aug-16 15:00N 43°42' E 007°22'1 2.0
2018-Aug-16 14:27N 43°41' E 007°21'0 0.0
2018-Aug-16 14:00N 43°41' E 007°21'0 0.0
2018-Aug-16 13:30N 43°41' E 007°21'0 0.0
2018-Aug-16 13:00N 43°41' E 007°21'0 0.0
2018-Aug-16 12:27N 43°41' E 007°21'0 0.0
2018-Aug-16 11:57N 43°41' E 007°21'0 0.0
2018-Aug-16 11:30N 43°41' E 007°21'0 0.0
2018-Aug-16 11:00N 43°41' E 007°21'0 0.0
2018-Aug-16 10:30N 43°41' E 007°21'0 0.0
2018-Aug-16 10:00N 43°41' E 007°21'0 0.0
2018-Aug-16 09:30N 43°41' E 007°21'0 0.0
2018-Aug-16 09:00N 43°41' E 007°21'3 5.5
2018-Aug-16 08:30N 43°42' E 007°24'4 7.7
2018-Aug-16 08:00N 43°45' E 007°28'0 0.0
2018-Aug-16 07:24N 43°45' E 007°28'0 0.0
2018-Aug-16 06:54N 43°45' E 007°28'0 0.0
2018-Aug-16 06:30N 43°45' E 007°28'0 0.0
2018-Aug-16 06:00N 43°45' E 007°28'0 0.0
2018-Aug-16 05:30N 43°45' E 007°28'0 0.0
2018-Aug-16 05:00N 43°45' E 007°28'0 0.0
2018-Aug-16 04:27N 43°45' E 007°28'0 0.0
2018-Aug-16 04:00N 43°45' E 007°28'0 0.0
2018-Aug-16 03:24N 43°45' E 007°28'0 0.0
2018-Aug-16 03:00N 43°45' E 007°28'0 0.0
2018-Aug-16 02:30N 43°45' E 007°28'0 0.0
2018-Aug-16 02:00N 43°45' E 007°28'0 0.0
2018-Aug-16 01:30N 43°45' E 007°28'0 0.0
2018-Aug-16 01:00N 43°45' E 007°28'0 0.0
2018-Aug-16 00:27N 43°45' E 007°28'0 0.0
2018-Aug-16 00:00N 43°45' E 007°28'0 0.0
2018-Aug-15 23:30N 43°45' E 007°28'0 0.0
2018-Aug-15 23:00N 43°45' E 007°28'0 0.0
2018-Aug-15 22:27N 43°45' E 007°28'0 0.0
2018-Aug-15 22:00N 43°45' E 007°28'0 0.0
2018-Aug-15 21:27N 43°45' E 007°28'0 0.0
2018-Aug-15 21:00N 43°45' E 007°28'0 0.0
2018-Aug-15 20:30N 43°45' E 007°28'0 0.0
2018-Aug-15 20:00N 43°45' E 007°28'0 0.0
2018-Aug-15 19:30N 43°45' E 007°28'0 0.0
2018-Aug-15 19:00N 43°45' E 007°28'0 0.0
2018-Aug-15 18:30N 43°45' E 007°28'0 0.0
2018-Aug-15 18:00N 43°45' E 007°28'0 0.0
2018-Aug-15 17:27N 43°45' E 007°28'0 0.0
2018-Aug-15 17:00N 43°45' E 007°28'0 0.0
2018-Aug-15 16:30N 43°45' E 007°28'0 0.0
2018-Aug-15 16:00N 43°45' E 007°28'0 0.0
2018-Aug-15 15:30N 43°45' E 007°28'3 6.1
2018-Aug-15 15:01N 43°45' E 007°32'918.3
2018-Aug-15 14:30N 43°46' E 007°45'1019.2
2018-Aug-15 14:00N 43°48' E 007°58'1019.3
2018-Aug-15 13:30N 43°50' E 008°11'918.7
2018-Aug-15 13:00N 43°52' E 008°23'1118.8
2018-Aug-15 12:27N 43°54' E 008°38'818.6
2018-Aug-15 12:01N 43°55' E 008°49'918.4
2018-Aug-15 11:31N 43°57' E 009°01'918.0
2018-Aug-15 11:00N 43°58' E 009°14'917.8
2018-Aug-15 10:31N 43°60' E 009°26'917.8
2018-Aug-15 10:00N 44°01' E 009°38'816.7
2018-Aug-15 09:30N 44°03' E 009°50'0 0.0
2018-Aug-14 15:49N 44°03' E 009°50'0 0.0
2018-Aug-14 15:28N 44°03' E 009°50'0 0.0
2018-Aug-14 14:58N 44°03' E 009°50'0 0.0
2018-Aug-14 14:28N 44°03' E 009°50'0 0.0
2018-Aug-14 13:58N 44°03' E 009°50'0 0.0
2018-Aug-14 13:28N 44°03' E 009°50'0 0.0
2018-Aug-14 12:55N 44°03' E 009°50'0 0.0
2018-Aug-14 12:28N 44°03' E 009°50'0 0.0
2018-Aug-14 11:55N 44°03' E 009°50'1 2.2
2018-Aug-14 11:30N 44°03' E 009°51'3 6.6
2018-Aug-14 11:00N 44°01' E 009°55'815.3
2018-Aug-14 10:30N 43°59' E 010°05'4 7.5
2018-Aug-14 10:00N 43°57' E 010°10'611.6
2018-Aug-14 09:30N 43°60' E 010°02'714.2
2018-Aug-14 09:00N 44°03' E 009°53'2 4.4
2018-Aug-14 08:28N 44°03' E 009°50'0 0.0
2018-Aug-14 07:58N 44°03' E 009°50'0 0.0
2018-Aug-14 07:22N 44°03' E 009°50'0 0.0
2018-Aug-14 06:58N 44°03' E 009°50'0 0.0
2018-Aug-14 06:28N 44°03' E 009°50'0 0.0
2018-Aug-14 05:58N 44°03' E 009°50'0 0.0
2018-Aug-14 05:28N 44°03' E 009°50'0 0.0
2018-Aug-14 04:58N 44°03' E 009°50'0 0.0
2018-Aug-14 04:22N 44°03' E 009°50'0 0.0
2018-Aug-14 03:58N 44°03' E 009°50'0 0.0
2018-Aug-14 03:28N 44°03' E 009°50'0 0.0
2018-Aug-14 02:58N 44°03' E 009°50'0 0.0
2018-Aug-14 02:28N 44°03' E 009°50'0 0.0
2018-Aug-14 01:58N 44°03' E 009°50'0 0.0
2018-Aug-14 01:28N 44°03' E 009°50'0 0.0
2018-Aug-14 00:58N 44°03' E 009°50'0 0.0
2018-Aug-14 00:28N 44°03' E 009°50'0 0.0
2018-Aug-13 23:58N 44°03' E 009°50'0 0.0
2018-Aug-13 23:28N 44°03' E 009°50'0 0.0
2018-Aug-13 22:58N 44°03' E 009°50'0 0.0
2018-Aug-13 22:28N 44°03' E 009°50'0 0.0
2018-Aug-13 21:58N 44°03' E 009°50'0 0.0
2018-Aug-13 21:28N 44°03' E 009°50'0 0.0
2018-Aug-13 20:58N 44°03' E 009°50'0 0.0
2018-Aug-13 20:28N 44°03' E 009°50'0 0.0
2018-Aug-13 19:58N 44°03' E 009°50'0 0.0
2018-Aug-13 19:28N 44°03' E 009°50'0 0.0
2018-Aug-13 18:58N 44°03' E 009°50'0 0.0
2018-Aug-13 18:28N 44°03' E 009°50'0 0.0
2018-Aug-13 17:58N 44°03' E 009°50'0 0.0
2018-Aug-13 17:30N 44°03' E 009°50'1 2.4
2018-Aug-13 17:01N 44°03' E 009°52'816.6
2018-Aug-13 16:31N 43°55' E 009°53'918.4
2018-Aug-13 16:00N 43°46' E 009°53'917.9
2018-Aug-13 15:30N 43°37' E 009°55'917.9
2018-Aug-13 15:00N 43°28' E 009°60'917.9
2018-Aug-13 14:31N 43°20' E 010°04'917.9
2018-Aug-13 14:00N 43°11' E 010°07'917.8
2018-Aug-13 13:30N 43°03' E 010°10'15 0.7
2018-Aug-12 16:22N 42°49' E 010°20'411.7
2018-Aug-12 16:00N 42°52' E 010°24'  
Track history (hours):
 
Tides and Currents Weather Stations Pressure Air Temp Water Temp Dewpoint Dewpoint Depression Visibility Wind Speed Wind Dir Waves Ship Positions

Blue Angel

Last reported at 2018-Aug-19 17:39 UTC. Time now 2018-Aug-21 03:57 UTC.
Position N 43°35' E 007°08'.

MMSI: 3620.

Date/timePositionNaut miles runAvg speedWind from/ knotsBaromVisibWave heightAir tempDewpointWater temp
2018-Aug-19 17:39N 43°35' E 007°08'0 0.1
2018-Aug-19 17:30N 43°35' E 007°08'713.3
2018-Aug-19 17:00N 43°38' E 007°16'713.2
2018-Aug-19 16:30N 43°43' E 007°22'0 0.0
2018-Aug-19 15:59N 43°43' E 007°22'0 0.0
2018-Aug-19 15:29N 43°43' E 007°22'0 0.0
2018-Aug-19 14:59N 43°43' E 007°22'0 0.0
2018-Aug-19 14:29N 43°43' E 007°22'0 0.0
2018-Aug-19 13:59N 43°43' E 007°22'0 0.0
2018-Aug-19 13:29N 43°43' E 007°22'0 0.0
2018-Aug-19 12:59N 43°43' E 007°22'0 0.0
2018-Aug-19 12:29N 43°43' E 007°22'0 0.0
2018-Aug-19 11:59N 43°43' E 007°22'0 0.0
2018-Aug-19 11:29N 43°43' E 007°22'0 0.0
2018-Aug-19 10:56N 43°43' E 007°22'0 0.0
2018-Aug-19 10:29N 43°43' E 007°22'1 3.2
2018-Aug-19 10:00N 43°43' E 007°24'1 0.1
2018-Aug-18 15:45N 43°44' E 007°25'1 2.8
2018-Aug-18 15:31N 43°43' E 007°25'2 4.6
2018-Aug-18 15:00N 43°43' E 007°22'0 0.0
2018-Aug-18 14:30N 43°43' E 007°22'0 0.0
2018-Aug-18 14:00N 43°43' E 007°22'0 0.0
2018-Aug-18 13:27N 43°43' E 007°22'0 0.0
2018-Aug-18 13:00N 43°43' E 007°22'0 0.0
2018-Aug-18 12:30N 43°43' E 007°22'0 0.0
2018-Aug-18 12:00N 43°43' E 007°22'0 0.0
2018-Aug-18 11:27N 43°43' E 007°22'0 0.0
2018-Aug-18 11:00N 43°43' E 007°22'0 0.0
2018-Aug-18 10:27N 43°43' E 007°22'0 0.0
2018-Aug-18 10:00N 43°43' E 007°22'0 0.0
2018-Aug-18 09:27N 43°43' E 007°22'1 3.0
2018-Aug-18 09:00N 43°43' E 007°24'2 1.1
2018-Aug-18 07:18N 43°44' E 007°25'0 0.0
2018-Aug-18 07:00N 43°44' E 007°25'0 0.0
2018-Aug-17 17:45N 43°44' E 007°25'0 0.6
2018-Aug-17 17:30N 43°44' E 007°26'4 8.1
2018-Aug-17 17:00N 43°42' E 007°21'0 0.7
2018-Aug-17 16:24N 43°41' E 007°21'0 0.0
2018-Aug-17 16:00N 43°41' E 007°21'0 0.0
2018-Aug-17 15:27N 43°41' E 007°21'0 0.0
2018-Aug-17 15:00N 43°41' E 007°21'0 0.0
2018-Aug-17 14:00N 43°41' E 007°21'0 0.0
2018-Aug-17 13:30N 43°41' E 007°21'0 0.0
2018-Aug-17 12:57N 43°41' E 007°21'0 0.0
2018-Aug-17 12:30N 43°41' E 007°21'0 0.0
2018-Aug-17 12:00N 43°41' E 007°21'0 0.0
2018-Aug-17 11:30N 43°41' E 007°21'0 0.0
2018-Aug-17 11:00N 43°41' E 007°21'0 0.0
2018-Aug-17 10:27N 43°41' E 007°21'0 0.0
2018-Aug-17 09:15N 43°41' E 007°21'3 6.3
2018-Aug-17 08:42N 43°43' E 007°25'1 0.1
2018-Aug-16 16:35N 43°44' E 007°25'0 0.6
2018-Aug-16 16:30N 43°44' E 007°25'0 0.2
2018-Aug-16 15:59N 43°44' E 007°25'0 0.1
2018-Aug-16 15:30N 43°44' E 007°25'3 6.6
2018-Aug-16 15:00N 43°42' E 007°22'1 2.0
2018-Aug-16 14:27N 43°41' E 007°21'0 0.0
2018-Aug-16 14:00N 43°41' E 007°21'0 0.0
2018-Aug-16 13:30N 43°41' E 007°21'0 0.0
2018-Aug-16 13:00N 43°41' E 007°21'0 0.0
2018-Aug-16 12:27N 43°41' E 007°21'0 0.0
2018-Aug-16 11:57N 43°41' E 007°21'0 0.0
2018-Aug-16 11:30N 43°41' E 007°21'0 0.0
2018-Aug-16 11:00N 43°41' E 007°21'0 0.0
2018-Aug-16 10:30N 43°41' E 007°21'0 0.0
2018-Aug-16 10:00N 43°41' E 007°21'0 0.0
2018-Aug-16 09:30N 43°41' E 007°21'0 0.0
2018-Aug-16 09:00N 43°41' E 007°21'3 5.5
2018-Aug-16 08:30N 43°42' E 007°24'4 7.7
2018-Aug-16 08:00N 43°45' E 007°28'0 0.0
2018-Aug-16 07:24N 43°45' E 007°28'0 0.0
2018-Aug-16 06:54N 43°45' E 007°28'0 0.0
2018-Aug-16 06:30N 43°45' E 007°28'0 0.0
2018-Aug-16 06:00N 43°45' E 007°28'0 0.0
2018-Aug-16 05:30N 43°45' E 007°28'0 0.0
2018-Aug-16 05:00N 43°45' E 007°28'0 0.0
2018-Aug-16 04:27N 43°45' E 007°28'0 0.0
2018-Aug-16 04:00N 43°45' E 007°28'0 0.0
2018-Aug-16 03:24N 43°45' E 007°28'0 0.0
2018-Aug-16 03:00N 43°45' E 007°28'0 0.0
2018-Aug-16 02:30N 43°45' E 007°28'0 0.0
2018-Aug-16 02:00N 43°45' E 007°28'0 0.0
2018-Aug-16 01:30N 43°45' E 007°28'0 0.0
2018-Aug-16 01:00N 43°45' E 007°28'0 0.0
2018-Aug-16 00:27N 43°45' E 007°28'0 0.0
2018-Aug-16 00:00N 43°45' E 007°28'0 0.0
2018-Aug-15 23:30N 43°45' E 007°28'0 0.0
2018-Aug-15 23:00N 43°45' E 007°28'0 0.0
2018-Aug-15 22:27N 43°45' E 007°28'0 0.0
2018-Aug-15 22:00N 43°45' E 007°28'0 0.0
2018-Aug-15 21:27N 43°45' E 007°28'0 0.0
2018-Aug-15 21:00N 43°45' E 007°28'0 0.0
2018-Aug-15 20:30N 43°45' E 007°28'0 0.0
2018-Aug-15 20:00N 43°45' E 007°28'0 0.0
2018-Aug-15 19:30N 43°45' E 007°28'0 0.0
2018-Aug-15 19:00N 43°45' E 007°28'0 0.0
2018-Aug-15 18:30N 43°45' E 007°28'0 0.0
2018-Aug-15 18:00N 43°45' E 007°28'0 0.0
2018-Aug-15 17:27N 43°45' E 007°28'0 0.0
2018-Aug-15 17:00N 43°45' E 007°28'0 0.0
2018-Aug-15 16:30N 43°45' E 007°28'0 0.0
2018-Aug-15 16:00N 43°45' E 007°28'0 0.0
2018-Aug-15 15:30N 43°45' E 007°28'3 6.1
2018-Aug-15 15:01N 43°45' E 007°32'918.3
2018-Aug-15 14:30N 43°46' E 007°45'1019.2
2018-Aug-15 14:00N 43°48' E 007°58'1019.3
2018-Aug-15 13:30N 43°50' E 008°11'918.7
2018-Aug-15 13:00N 43°52' E 008°23'1118.8
2018-Aug-15 12:27N 43°54' E 008°38'818.6
2018-Aug-15 12:01N 43°55' E 008°49'918.4
2018-Aug-15 11:31N 43°57' E 009°01'918.0
2018-Aug-15 11:00N 43°58' E 009°14'917.8
2018-Aug-15 10:31N 43°60' E 009°26'917.8
2018-Aug-15 10:00N 44°01' E 009°38'816.7
2018-Aug-15 09:30N 44°03' E 009°50'0 0.0
2018-Aug-14 15:49N 44°03' E 009°50'0 0.0
2018-Aug-14 15:28N 44°03' E 009°50'0 0.0
2018-Aug-14 14:58N 44°03' E 009°50'0 0.0
2018-Aug-14 14:28N 44°03' E 009°50'0 0.0
2018-Aug-14 13:58N 44°03' E 009°50'0 0.0
2018-Aug-14 13:28N 44°03' E 009°50'0 0.0
2018-Aug-14 12:55N 44°03' E 009°50'0 0.0
2018-Aug-14 12:28N 44°03' E 009°50'0 0.0
2018-Aug-14 11:55N 44°03' E 009°50'1 2.2
2018-Aug-14 11:30N 44°03' E 009°51'3 6.6
2018-Aug-14 11:00N 44°01' E 009°55'815.3
2018-Aug-14 10:30N 43°59' E 010°05'4 7.5
2018-Aug-14 10:00N 43°57' E 010°10'611.6
2018-Aug-14 09:30N 43°60' E 010°02'714.2
2018-Aug-14 09:00N 44°03' E 009°53'2 4.4
2018-Aug-14 08:28N 44°03' E 009°50'0 0.0
2018-Aug-14 07:58N 44°03' E 009°50'0 0.0
2018-Aug-14 07:22N 44°03' E 009°50'0 0.0
2018-Aug-14 06:58N 44°03' E 009°50'0 0.0
2018-Aug-14 06:28N 44°03' E 009°50'0 0.0
2018-Aug-14 05:58N 44°03' E 009°50'0 0.0
2018-Aug-14 05:28N 44°03' E 009°50'0 0.0
2018-Aug-14 04:58N 44°03' E 009°50'0 0.0
2018-Aug-14 04:22N 44°03' E 009°50'0 0.0
2018-Aug-14 03:58N 44°03' E 009°50'0 0.0
2018-Aug-14 03:28N 44°03' E 009°50'0 0.0
2018-Aug-14 02:58N 44°03' E 009°50'0 0.0
2018-Aug-14 02:28N 44°03' E 009°50'0 0.0
2018-Aug-14 01:58N 44°03' E 009°50'0 0.0
2018-Aug-14 01:28N 44°03' E 009°50'0 0.0
2018-Aug-14 00:58N 44°03' E 009°50'0 0.0
2018-Aug-14 00:28N 44°03' E 009°50'0 0.0
2018-Aug-13 23:58N 44°03' E 009°50'0 0.0
2018-Aug-13 23:28N 44°03' E 009°50'0 0.0
2018-Aug-13 22:58N 44°03' E 009°50'0 0.0
2018-Aug-13 22:28N 44°03' E 009°50'0 0.0
2018-Aug-13 21:58N 44°03' E 009°50'0 0.0
2018-Aug-13 21:28N 44°03' E 009°50'0 0.0
2018-Aug-13 20:58N 44°03' E 009°50'0 0.0
2018-Aug-13 20:28N 44°03' E 009°50'0 0.0
2018-Aug-13 19:58N 44°03' E 009°50'0 0.0
2018-Aug-13 19:28N 44°03' E 009°50'0 0.0
2018-Aug-13 18:58N 44°03' E 009°50'0 0.0
2018-Aug-13 18:28N 44°03' E 009°50'0 0.0
2018-Aug-13 17:58N 44°03' E 009°50'0 0.0
2018-Aug-13 17:30N 44°03' E 009°50'1 2.4
2018-Aug-13 17:01N 44°03' E 009°52'816.6
2018-Aug-13 16:31N 43°55' E 009°53'918.4
2018-Aug-13 16:00N 43°46' E 009°53'917.9
2018-Aug-13 15:30N 43°37' E 009°55'917.9
2018-Aug-13 15:00N 43°28' E 009°60'917.9
2018-Aug-13 14:31N 43°20' E 010°04'917.9
2018-Aug-13 14:00N 43°11' E 010°07'917.8
2018-Aug-13 13:30N 43°03' E 010°10'15 0.7
2018-Aug-12 16:22N 42°49' E 010°20'411.7
2018-Aug-12 16:00N 42°52' E 010°24'  

Dump ship's entire track history